Time;durP1;ratioP1;P1;durP2;ratioP2;P2;SDS_P1;SDS_P2;PMS_P1;PMS_P2;Temp;Humidity;BMP_temperature;BMP_pressure;BME280_temperature;BME280_humidity;BME280_pressure;Samples;Min_cycle;Max_cycle;Signal;HPM_P1;HPM_P2
2020/12/28 00:01:23;;;;;;;5.87;4.30;;;;;;;3.08;69.60;98103.34;2302818;77;31656;-62
2020/12/28 00:04:26;;;;;;;11.25;4.87;;;;;;;3.12;69.63;98098.73;2302788;77;34444;-62
2020/12/28 00:07:29;;;;;;;9.00;4.85;;;;;;;3.14;69.56;98080.98;2302801;77;30106;-62
2020/12/28 00:10:31;;;;;;;8.08;5.08;;;;;;;3.15;69.58;98074.27;2302828;77;27615;-62
2020/12/28 00:13:34;;;;;;;8.15;4.47;;;;;;;3.15;69.49;98072.95;2302723;77;29787;-62
2020/12/28 00:16:37;;;;;;;7.65;5.00;;;;;;;3.16;69.56;98068.05;2302725;77;31169;-62
2020/12/28 00:19:40;;;;;;;8.00;4.70;;;;;;;3.14;69.51;98057.17;2302717;77;34028;-62
2020/12/28 00:22:42;;;;;;;7.87;5.00;;;;;;;3.13;69.54;98039.59;2302677;77;29254;-62
2020/12/28 00:25:45;;;;;;;8.85;4.67;;;;;;;3.13;69.76;98037.82;2302945;77;27608;-63
2020/12/28 00:28:47;;;;;;;8.28;5.28;;;;;;;3.15;69.75;98049.14;2302644;77;28826;-63
2020/12/28 00:31:50;;;;;;;11.50;4.75;;;;;;;3.17;69.81;98031.39;2302596;77;31334;-64
2020/12/28 00:34:52;;;;;;;9.35;5.03;;;;;;;3.21;69.82;98023.29;2302492;77;33156;-64
2020/12/28 00:37:54;;;;;;;7.25;4.62;;;;;;;3.23;69.87;98018.77;2302561;77;29169;-63
2020/12/28 00:40:57;;;;;;;8.85;4.62;;;;;;;3.26;69.89;98014.63;2302615;77;27684;-64
2020/12/28 00:44:00;;;;;;;8.65;4.70;;;;;;;3.28;70.08;97999.53;2302802;77;28037;-64
2020/12/28 00:47:03;;;;;;;7.67;4.80;;;;;;;3.30;69.86;97989.23;2302670;77;31116;-61
2020/12/28 00:50:07;;;;;;;10.32;6.75;;;;;;;3.31;69.92;97985.64;2302572;77;33651;-64
2020/12/28 00:53:09;;;;;;;12.30;6.35;;;;;;;3.33;69.87;97979.80;2302645;77;29154;-64
2020/12/28 00:56:14;;;;;;;8.38;4.70;;;;;;;3.35;70.07;97984.98;2302755;77;28136;-64
2020/12/28 00:59:17;;;;;;;;;;;;;;;3.37;70.06;97989.72;2305424;77;28803;-63
2020/12/28 01:02:19;;;;;;;8.28;5.87;;;;;;;3.39;70.03;97991.81;2302770;77;31208;-62
2020/12/28 01:05:22;;;;;;;6.20;3.92;;;;;;;3.40;70.06;97972.80;2302651;77;34480;-62
2020/12/28 01:08:24;;;;;;;8.70;6.08;;;;;;;3.44;70.01;97971.69;2302779;77;29601;-62
2020/12/28 01:11:26;;;;;;;8.95;6.47;;;;;;;3.48;69.95;97960.83;2302773;77;27683;-63
2020/12/28 01:14:28;;;;;;;7.78;4.87;;;;;;;3.52;69.92;97951.39;2302820;77;28803;-63
2020/12/28 01:17:31;;;;;;;8.33;5.33;;;;;;;3.54;69.96;97954.34;2302668;77;32093;-62
2020/12/28 01:20:34;;;;;;;9.00;5.92;;;;;;;3.57;69.93;97960.76;2302564;77;33087;-62
2020/12/28 01:23:36;;;;;;;9.08;5.60;;;;;;;3.57;69.97;97952.81;2302513;77;29110;-63
2020/12/28 01:26:39;;;;;;;7.25;5.17;;;;;;;3.59;70.07;97942.99;2302828;77;27654;-63
2020/12/28 01:29:41;;;;;;;10.20;5.85;;;;;;;3.62;70.03;97937.52;2302723;77;28895;-63
2020/12/28 01:32:44;;;;;;;7.05;4.72;;;;;;;3.64;70.07;97926.86;2302735;77;31132;-63
2020/12/28 01:35:47;;;;;;;9.63;6.12;;;;;;;3.68;69.95;97916.92;2302696;77;33006;-63
2020/12/28 01:38:50;;;;;;;12.15;6.85;;;;;;;3.70;69.94;97917.20;2302646;77;30135;-63
2020/12/28 01:41:53;;;;;;;9.38;6.08;;;;;;;3.73;69.97;97911.73;2302733;77;27636;-63
2020/12/28 01:44:55;;;;;;;9.63;6.90;;;;;;;3.77;69.96;97917.69;2302629;77;28955;-63
2020/12/28 01:47:58;;;;;;;18.52;9.18;;;;;;;3.80;69.90;97887.05;2302576;77;31176;-63
2020/12/28 01:51:01;;;;;;;10.55;5.85;;;;;;;3.83;69.90;97888.65;2302472;77;33119;-63
2020/12/28 01:54:04;;;;;;;10.65;5.58;;;;;;;3.86;69.89;97885.82;2302572;77;28470;-63
2020/12/28 01:57:07;;;;;;;5.50;3.70;;;;;;;3.86;69.90;97865.50;2302600;77;27510;-64
2020/12/28 02:00:10;;;;;;;11.43;6.62;;;;;;;3.89;69.86;97867.93;2302533;77;29246;-63
2020/12/28 02:03:14;;;;;;;10.05;6.42;;;;;;;3.93;69.83;97852.23;2302549;77;30916;-63
2020/12/28 02:06:17;;;;;;;6.62;4.30;;;;;;;3.95;69.79;97847.70;2302540;77;33942;-64
2020/12/28 02:09:19;;;;;;;8.80;5.20;;;;;;;3.95;69.78;97841.08;2302647;77;29143;-64
2020/12/28 02:12:22;;;;;;;8.93;5.10;;;;;;;3.91;69.75;97826.80;2302771;77;27611;-63
2020/12/28 02:15:24;;;;;;;7.12;4.75;;;;;;;3.97;69.71;97834.38;2302532;77;28815;-64
2020/12/28 02:18:27;;;;;;;7.42;4.58;;;;;;;3.96;69.68;97820.75;2302709;77;32063;-64
2020/12/28 02:21:29;;;;;;;7.12;5.10;;;;;;;3.97;69.71;97822.45;2302662;77;33559;-63
2020/12/28 02:24:31;;;;;;;7.08;5.05;;;;;;;3.97;69.69;97826.43;2302550;77;29157;-63
2020/12/28 02:27:33;;;;;;;7.05;4.47;;;;;;;3.98;69.69;97821.48;2302614;77;27637;-63
2020/12/28 02:30:36;;;;;;;12.50;6.67;;;;;;;3.97;69.66;97813.19;2302546;77;28819;-64
2020/12/28 02:33:42;;;;;;;7.17;4.70;;;;;;;3.96;69.64;97808.83;2302648;77;31109;-63
2020/12/28 02:36:44;;;;;;;14.58;8.60;;;;;;;3.93;69.70;97805.05;2302668;77;33519;-64
2020/12/28 02:39:47;;;;;;;7.30;4.87;;;;;;;3.88;69.63;97810.64;2302537;77;29283;-63
2020/12/28 02:42:50;;;;;;;8.88;4.72;;;;;;;3.80;69.67;97803.17;2302657;77;27689;-63
2020/12/28 02:45:55;;;;;;;7.92;5.03;;;;;;;3.75;69.86;97805.25;2302604;77;28733;-63
2020/12/28 02:48:57;;;;;;;6.37;4.00;;;;;;;3.71;69.82;97813.48;2302508;77;31168;-64
2020/12/28 02:51:59;;;;;;;8.18;5.03;;;;;;;3.66;69.84;97796.53;2306009;77;33100;-64
2020/12/28 02:55:01;;;;;;;5.50;3.70;;;;;;;3.61;70.00;97791.53;2306739;77;29698;-64
2020/12/28 02:58:03;;;;;;;9.65;4.92;;;;;;;3.57;70.19;97761.38;2306701;77;27650;-64
2020/12/28 03:01:06;;;;;;;6.50;4.30;;;;;;;3.54;70.16;97738.61;2306784;77;28807;-63
2020/12/28 03:04:08;;;;;;;5.90;3.83;;;;;;;3.51;70.34;97737.47;2306932;77;31592;-64
2020/12/28 03:07:10;;;;;;;4.40;3.58;;;;;;;3.50;70.36;97723.86;2306984;77;34358;-63
2020/12/28 03:10:13;;;;;;;5.53;3.95;;;;;;;3.49;70.55;97706.27;2306753;77;29154;-63
2020/12/28 03:13:15;;;;;;;5.90;4.35;;;;;;;3.49;70.47;97704.46;2306951;77;27759;-64
2020/12/28 03:16:17;;;;;;;9.48;3.55;;;;;;;3.50;70.49;97710.62;2306792;77;28808;-63
2020/12/28 03:19:20;;;;;;;4.45;3.08;;;;;;;3.50;70.49;97714.11;2306657;77;31116;-63
2020/12/28 03:22:22;;;;;;;3.85;2.95;;;;;;;3.50;70.55;97707.98;2306657;77;33114;-63
2020/12/28 03:25:25;;;;;;;3.95;2.75;;;;;;;3.50;70.64;97701.36;2306828;77;29181;-63
2020/12/28 03:28:27;;;;;;;7.12;3.72;;;;;;;3.52;70.72;97689.34;2306853;77;27518;-63
2020/12/28 03:31:30;;;;;;;5.72;3.35;;;;;;;3.53;70.61;97693.23;2306879;77;28883;-63
2020/12/28 03:34:32;;;;;;;6.97;4.10;;;;;;;3.54;70.70;97697.58;2306808;77;31085;-63
2020/12/28 03:37:34;;;;;;;5.95;3.72;;;;;;;3.56;70.65;97696.15;2306822;77;33102;-63
2020/12/28 03:40:37;;;;;;;4.33;2.85;;;;;;;3.56;70.63;97690.86;2306845;77;29218;-63
2020/12/28 03:43:39;;;;;;;5.53;3.35;;;;;;;3.58;70.63;97687.64;2306924;77;27649;-63
2020/12/28 03:46:42;;;;;;;6.62;4.70;;;;;;;3.59;70.63;97685.38;2306874;77;28803;-63
2020/12/28 03:49:46;;;;;;;5.40;3.80;;;;;;;3.59;70.77;97673.45;2281006;77;31128;-63
2020/12/28 03:52:48;;;;;;;5.70;3.60;;;;;;;3.59;70.86;97672.13;2261716;78;33642;-63
2020/12/28 03:55:50;;;;;;;7.00;4.50;;;;;;;3.61;71.15;97675.54;2261399;78;29608;-63
2020/12/28 03:58:53;;;;;;;5.62;3.87;;;;;;;3.61;71.03;97673.73;2261597;78;27709;-63
2020/12/28 04:01:55;;;;;;;6.62;4.03;;;;;;;3.66;71.01;97685.34;2261484;78;28969;-63
2020/12/28 04:04:58;;;;;;;6.85;4.28;;;;;;;3.71;71.04;97681.09;2261418;78;31138;-63
2020/12/28 04:08:00;;;;;;;5.58;4.22;;;;;;;3.76;71.02;97684.28;2261466;78;33094;-63
2020/12/28 04:11:03;;;;;;;6.35;3.80;;;;;;;3.79;71.11;97688.06;2261558;78;30029;-63
2020/12/28 04:14:05;;;;;;;3.80;3.00;;;;;;;3.83;71.03;97682.08;2261668;78;27623;-63
2020/12/28 04:17:08;;;;;;;6.15;4.40;;;;;;;3.85;71.09;97674.44;2261464;78;28820;-63
2020/12/28 04:20:10;;;;;;;5.95;3.77;;;;;;;3.86;70.97;97670.84;2261438;78;32553;-63
2020/12/28 04:23:12;;;;;;;7.70;4.33;;;;;;;3.87;71.04;97677.84;2261327;78;33122;-63
2020/12/28 04:26:14;;;;;;;6.05;4.15;;;;;;;3.92;70.96;97666.94;2261435;78;29177;-63
2020/12/28 04:29:17;;;;;;;5.33;4.12;;;;;;;3.94;70.96;97661.91;2261600;78;27636;-63
2020/12/28 04:32:20;;;;;;;5.92;3.47;;;;;;;3.98;70.91;97659.06;2261550;78;29708;-63
2020/12/28 04:35:22;;;;;;;5.58;3.62;;;;;;;3.98;70.96;97640.03;2261461;78;33436;-63
2020/12/28 04:38:24;;;;;;;5.83;3.80;;;;;;;4.01;70.84;97641.65;2261355;78;33093;-63
2020/12/28 04:41:29;;;;;;;4.90;3.47;;;;;;;4.01;70.81;97619.97;2261367;78;29288;-65
2020/12/28 04:44:32;;;;;;;7.58;3.52;;;;;;;4.01;70.81;97619.97;2261594;78;27700;-64
2020/12/28 04:47:34;;;;;;;5.35;3.62;;;;;;;4.04;70.77;97624.23;2261401;78;28801;-62
2020/12/28 04:50:38;;;;;;;5.15;3.00;;;;;;;4.05;70.78;97622.80;2241129;77;31538;-63
2020/12/28 04:53:42;;;;;;;5.55;3.72;;;;;;;4.05;70.75;97624.61;2306830;77;33115;-64
2020/12/28 04:56:44;;;;;;;5.45;3.77;;;;;;;4.06;70.75;97634.23;2306808;77;28551;-64
2020/12/28 04:59:48;;;;;;;4.20;3.42;;;;;;;4.08;70.73;97642.47;2306822;77;28168;-64
2020/12/28 05:02:51;;;;;;;7.95;3.30;;;;;;;4.09;70.79;97640.19;2280519;77;28823;-64
2020/12/28 05:05:54;;;;;;;3.90;2.75;;;;;;;4.13;70.68;97646.62;2306677;77;32497;-64
2020/12/28 05:08:56;;;;;;;4.22;3.47;;;;;;;4.17;70.65;97649.41;2306674;77;33150;-64
2020/12/28 05:12:04;;;;;;;4.50;3.33;;;;;;;4.20;70.62;97647.89;2306722;77;29152;-63
2020/12/28 05:15:07;;;;;;;4.20;3.00;;;;;;;4.22;70.61;97638.87;2306793;77;27629;-64
2020/12/28 05:18:10;;;;;;;3.67;2.87;;;;;;;4.25;70.58;97644.47;2280672;77;28820;-63
2020/12/28 05:21:17;;;;;;;4.33;3.27;;;;;;;4.26;70.49;97642.20;2306692;77;31698;-64
2020/12/28 05:24:20;;;;;;;5.33;3.45;;;;;;;4.27;70.45;97622.70;2305256;77;33355;-64
2020/12/28 05:27:23;;;;;;;3.90;3.08;;;;;;;4.27;70.47;97622.70;2306677;77;29700;-64
2020/12/28 05:30:25;;;;;;;4.58;3.08;;;;;;;4.28;70.45;97628.83;2306729;77;27740;-64
2020/12/28 05:33:34;;;;;;;3.85;3.08;;;;;;;4.31;70.40;97622.84;2306727;77;29739;-63
2020/12/28 05:36:38;;;;;;;4.30;3.12;;;;;;;4.34;70.39;97623.13;2306627;77;32156;-64
2020/12/28 05:39:42;;;;;;;3.83;3.08;;;;;;;4.35;70.34;97628.80;2306659;77;33558;-64
2020/12/28 05:42:52;;;;;;;3.70;3.35;;;;;;;4.38;70.36;97631.25;2305639;77;29162;-64
2020/12/28 05:45:54;;;;;;;5.85;3.67;;;;;;;4.39;70.25;97635.11;2306752;77;27690;-64
2020/12/28 05:48:56;;;;;;;6.22;3.72;;;;;;;4.40;70.25;97628.86;2306609;77;29788;-64
2020/12/28 05:52:00;;;;;;;6.03;3.52;;;;;;;4.42;70.30;97635.38;2279904;77;31131;-63
2020/12/28 05:55:04;;;;;;;3.98;2.83;;;;;;;4.44;70.21;97630.81;2306287;77;33115;-64
2020/12/28 05:58:07;;;;;;;4.53;3.17;;;;;;;4.48;70.17;97628.80;2306282;77;29126;-63
2020/12/28 06:01:11;;;;;;;4.42;3.30;;;;;;;4.52;70.03;97639.58;2306497;77;27722;-63
2020/12/28 06:04:15;;;;;;;3.60;2.95;;;;;;;4.56;70.14;97643.72;2306443;77;29732;-64
2020/12/28 06:07:21;;;;;;;3.20;2.62;;;;;;;4.58;69.96;97643.60;2306435;77;31235;-64
2020/12/28 06:10:23;;;;;;;4.70;3.42;;;;;;;4.60;69.89;97637.27;2306384;77;33113;-64
2020/12/28 06:13:26;;;;;;;4.47;2.90;;;;;;;4.61;69.87;97634.12;2306310;77;30534;-63
2020/12/28 06:16:28;;;;;;;4.97;3.30;;;;;;;4.61;69.76;97622.19;2306379;77;27596;-64
2020/12/28 06:19:31;;;;;;;4.92;3.83;;;;;;;4.61;69.78;97623.52;2306220;77;28817;-63
2020/12/28 06:22:34;;;;;;;5.55;3.47;;;;;;;4.59;69.77;97619.66;2306270;77;31117;-64
2020/12/28 06:25:38;;;;;;;4.95;3.42;;;;;;;4.59;69.74;97615.68;2306263;77;33122;-64
2020/12/28 06:28:41;;;;;;;4.80;3.62;;;;;;;4.61;69.76;97630.14;2306398;77;29082;-64
2020/12/28 06:31:43;;;;;;;4.83;4.03;;;;;;;4.63;69.68;97626.45;2306464;77;27693;-64
2020/12/28 06:34:47;;;;;;;3.85;2.72;;;;;;;4.64;69.72;97635.24;2306331;77;28805;-63
2020/12/28 06:37:53;;;;;;;5.65;3.80;;;;;;;4.66;69.59;97630.20;2306379;77;31133;-64
2020/12/28 06:40:56;;;;;;;4.60;3.55;;;;;;;4.67;69.61;97639.84;2306260;77;34063;-64
2020/12/28 06:44:01;;;;;;;8.05;3.92;;;;;;;4.67;69.52;97637.69;2306327;77;29262;-64
2020/12/28 06:47:20;;;;;;;6.00;3.83;;;;;;;4.68;69.53;97639.39;2306201;77;37022;-64
2020/12/28 06:50:23;;;;;;;5.42;4.10;;;;;;;4.68;69.46;97641.55;2306320;77;28820;-63
2020/12/28 06:53:27;;;;;;;5.22;3.75;;;;;;;4.70;69.56;97652.07;2303579;77;32491;-64
2020/12/28 06:56:29;;;;;;;5.40;3.80;;;;;;;4.71;69.58;97652.45;2303261;77;33090;-64
2020/12/28 06:59:33;;;;;;;4.90;3.52;;;;;;;4.73;69.52;97652.33;2303309;77;29250;-64
2020/12/28 07:02:35;;;;;;;4.08;3.15;;;;;;;4.74;69.47;97647.40;2303318;77;27729;-64
2020/12/28 07:05:38;;;;;;;6.33;3.72;;;;;;;4.75;69.41;97658.38;2303269;77;28962;-64
2020/12/28 07:08:40;;;;;;;5.78;4.00;;;;;;;4.78;69.42;97660.34;2303246;77;32911;-64
2020/12/28 07:11:42;;;;;;;5.08;3.85;;;;;;;4.80;69.28;97661.08;2303047;77;33051;-64
2020/12/28 07:14:45;;;;;;;6.95;4.83;;;;;;;4.83;69.34;97654.70;2303244;77;29358;-64
2020/12/28 07:17:47;;;;;;;5.47;4.10;;;;;;;4.86;69.32;97651.84;2303536;77;27645;-64
2020/12/28 07:20:55;;;;;;;7.20;4.42;;;;;;;4.90;69.13;97648.50;2303329;77;29761;-64
2020/12/28 07:23:58;;;;;;;9.45;4.67;;;;;;;4.90;68.96;97643.19;2303370;77;32049;-63
2020/12/28 07:27:00;;;;;;;7.72;4.50;;;;;;;4.91;69.08;97631.63;2303292;77;33102;-63
2020/12/28 07:30:12;;;;;;;7.40;4.75;;;;;;;4.89;68.96;97627.77;2277064;77;30041;-64
2020/12/28 07:33:15;;;;;;;7.28;4.90;;;;;;;4.88;68.85;97620.77;2303445;77;27550;-63
2020/12/28 07:36:25;;;;;;;6.28;4.42;;;;;;;4.86;68.88;97617.36;2303431;77;29760;-63
2020/12/28 07:39:27;;;;;;;8.78;5.30;;;;;;;4.86;68.92;97624.00;2303306;77;31120;-63
2020/12/28 07:42:31;;;;;;;6.78;4.40;;;;;;;4.85;68.82;97620.97;2303236;77;33966;-63
2020/12/28 07:45:34;;;;;;;6.20;4.53;;;;;;;4.82;68.73;97611.44;2303370;77;30164;-63
2020/12/28 07:48:37;;;;;;;6.40;4.03;;;;;;;4.79;68.78;97594.89;2303683;77;27573;-63
2020/12/28 07:51:41;;;;;;;8.78;4.40;;;;;;;4.76;68.68;97597.26;2303521;77;28829;-63
2020/12/28 07:55:00;;;;;;;6.08;4.08;;;;;;;4.75;68.75;97588.09;2303524;77;31118;-63
2020/12/28 07:58:20;;;;;;;7.70;5.10;;;;;;;4.72;68.73;97575.88;2303504;77;33147;-63
2020/12/28 08:01:36;;;;;;;5.72;4.35;;;;;;;4.71;68.75;97575.54;2303646;77;29222;-63
2020/12/28 08:04:39;;;;;;;9.75;6.60;;;;;;;4.70;68.74;97567.21;2303655;77;27660;-62
2020/12/28 08:07:42;;;;;;;9.10;5.92;;;;;;;4.68;68.89;97565.97;2303621;77;28806;-63
2020/12/28 08:10:53;;;;;;;6.90;4.90;;;;;;;4.66;68.86;97556.44;2303553;77;31134;-63
2020/12/28 08:13:57;;;;;;;8.40;5.33;;;;;;;4.62;68.91;97560.25;2303552;77;33114;-62
2020/12/28 08:17:05;;;;;;;7.80;5.28;;;;;;;4.58;68.97;97571.56;2303447;77;29152;-63
2020/12/28 08:20:13;;;;;;;8.55;4.97;;;;;;;4.54;69.05;97570.93;2302389;77;27635;-64
2020/12/28 08:23:15;;;;;;;8.40;5.05;;;;;;;4.53;69.08;97585.60;2303423;77;28850;-63
2020/12/28 08:26:27;;;;;;;7.30;5.10;;;;;;;4.54;69.16;97604.07;2303288;77;32088;-63
2020/12/28 08:29:30;;;;;;;8.65;5.37;;;;;;;4.57;69.13;97599.02;2303206;77;34107;-63
2020/12/28 08:32:35;;;;;;;9.55;5.70;;;;;;;4.58;69.09;97580.84;2303284;77;29154;-63
2020/12/28 08:35:47;;;;;;;10.43;6.03;;;;;;;4.59;69.09;97583.00;2303790;77;28145;-64
2020/12/28 08:38:49;;;;;;;11.20;6.50;;;;;;;4.59;69.09;97581.67;2303226;77;30217;-64
2020/12/28 08:42:00;;;;;;;9.83;6.25;;;;;;;4.60;69.14;97595.30;2303199;77;31190;-63
2020/12/28 08:45:03;;;;;;;18.23;11.95;;;;;;;4.63;69.17;97607.89;2303072;77;32996;-62
2020/12/28 08:48:05;;;;;;;11.70;6.47;;;;;;;4.66;69.21;97617.43;2303138;77;29216;-63
2020/12/28 08:51:19;;;;;;;9.20;5.72;;;;;;;4.69;69.25;97619.38;2303373;77;27721;-63
2020/12/28 08:54:28;;;;;;;12.80;6.78;;;;;;;4.76;69.15;97614.99;2303358;77;29608;-64
2020/12/28 08:57:31;;;;;;;11.55;7.53;;;;;;;4.83;69.08;97610.94;2303338;77;32154;-64
2020/12/28 09:00:37;;;;;;;12.07;7.60;;;;;;;4.88;69.17;97600.87;2303438;77;27994;-64
2020/12/28 09:03:40;;;;;;;11.28;6.87;;;;;;;4.97;69.06;97604.67;2303373;77;29138;-64
2020/12/28 09:06:43;;;;;;;12.35;7.50;;;;;;;5.02;68.94;97611.36;2303446;77;27769;-64
2020/12/28 09:09:47;;;;;;;11.70;6.53;;;;;;;5.08;69.03;97618.03;2303363;77;28897;-64
2020/12/28 09:12:50;;;;;;;13.03;8.38;;;;;;;5.14;68.93;97620.72;2303366;77;31182;-64
2020/12/28 09:15:52;;;;;;;11.22;6.72;;;;;;;5.17;68.82;97615.20;2303351;77;33560;-64
2020/12/28 09:18:55;;;;;;;18.60;11.35;;;;;;;5.19;68.73;97611.96;2303450;77;29232;-64
2020/12/28 09:21:57;;;;;;;12.47;7.55;;;;;;;5.20;68.87;97613.66;2303289;77;27663;-64
2020/12/28 09:25:00;;;;;;;9.10;6.40;;;;;;;5.23;68.86;97609.93;2303347;77;28833;-64
2020/12/28 09:28:03;;;;;;;9.75;5.85;;;;;;;5.24;68.74;97607.65;2303316;77;30420;-63
2020/12/28 09:31:06;;;;;;;9.75;6.08;;;;;;;5.25;68.73;97601.38;2303246;77;32715;-63
2020/12/28 09:34:09;;;;;;;8.93;5.83;;;;;;;5.26;68.64;97599.97;2303505;77;29161;-64
2020/12/28 09:37:12;;;;;;;8.73;6.17;;;;;;;5.29;68.67;97602.87;2303384;77;27701;-64
2020/12/28 09:40:15;;;;;;;10.58;6.92;;;;;;;5.32;68.72;97596.02;2303220;77;28812;-64
2020/12/28 09:43:17;;;;;;;9.40;7.25;;;;;;;5.36;68.68;97591.33;2303400;77;30329;-63
2020/12/28 09:46:21;;;;;;;12.90;7.58;;;;;;;5.41;68.77;97589.20;2303245;77;33563;-64
2020/12/28 09:49:25;;;;;;;11.83;6.95;;;;;;;5.46;68.72;97575.12;2303387;77;29163;-64
2020/12/28 09:52:28;;;;;;;6.15;4.35;;;;;;;5.50;68.63;97575.23;2303491;77;27844;-63
2020/12/28 09:55:31;;;;;;;13.83;6.97;;;;;;;5.52;68.54;97570.67;2303223;77;28809;-63
2020/12/28 09:58:34;;;;;;;11.60;6.90;;;;;;;5.55;68.55;97580.20;2303151;77;31155;-64
2020/12/28 10:01:36;;;;;;;11.15;8.38;;;;;;;5.55;68.36;97573.11;2303357;77;33105;-65
2020/12/28 10:04:39;;;;;;;28.60;17.25;;;;;;;5.56;68.53;97574.80;2303206;77;30449;-63
2020/12/28 10:07:43;;;;;;;12.98;7.42;;;;;;;5.58;68.44;97569.36;2303325;77;27657;-63
2020/12/28 10:10:45;;;;;;;13.00;8.20;;;;;;;5.59;68.33;97565.29;2303077;77;31120;-63
2020/12/28 10:13:48;;;;;;;10.23;6.70;;;;;;;5.62;68.19;97566.40;2303119;77;31116;-64
2020/12/28 10:16:51;;;;;;;9.43;6.12;;;;;;;5.63;68.08;97560.59;2303172;77;32416;-63
2020/12/28 10:19:53;;;;;;;10.50;6.97;;;;;;;5.64;67.99;97560.95;2303225;77;29153;-63
2020/12/28 10:22:56;;;;;;;10.13;6.50;;;;;;;5.67;68.08;97559.88;2303136;77;27657;-64
2020/12/28 10:25:59;;;;;;;15.28;6.97;;;;;;;5.68;68.00;97558.91;2303209;77;29849;-64
2020/12/28 10:29:02;;;;;;;11.57;6.80;;;;;;;5.68;67.99;97562.44;2303076;77;32183;-64
2020/12/28 10:32:05;;;;;;;13.10;7.05;;;;;;;5.70;67.86;97549.89;2302991;77;33111;-64
2020/12/28 10:35:07;;;;;;;18.00;7.45;;;;;;;5.69;67.79;97544.21;2303206;77;29706;-65
2020/12/28 10:38:10;;;;;;;10.80;7.08;;;;;;;5.68;67.79;97526.58;2303197;77;27609;-64
2020/12/28 10:41:13;;;;;;;14.45;9.53;;;;;;;5.67;67.82;97524.02;2303098;77;28905;-64
2020/12/28 10:44:18;;;;;;;15.90;8.83;;;;;;;5.68;67.77;97523.92;2303109;77;32090;-63
2020/12/28 10:47:20;;;;;;;11.15;8.40;;;;;;;5.67;67.62;97515.59;2303116;77;33964;-63
2020/12/28 10:50:23;;;;;;;12.18;8.30;;;;;;;5.65;67.68;97513.52;2303021;77;29203;-64
2020/12/28 10:53:25;;;;;;;17.15;8.58;;;;;;;5.63;67.65;97514.95;2303112;77;27737;-63
2020/12/28 10:56:30;;;;;;;16.90;8.30;;;;;;;5.61;67.55;97500.96;2303063;77;28803;-64
2020/12/28 10:59:34;;;;;;;11.93;7.85;;;;;;;5.60;67.60;97503.25;2303255;77;32135;-64
2020/12/28 11:02:37;;;;;;;10.72;6.97;;;;;;;5.58;67.59;97493.68;2303177;77;34569;-64
2020/12/28 11:05:39;;;;;;;11.85;7.92;;;;;;;5.55;67.58;97482.81;2303275;77;29592;-64
2020/12/28 11:08:42;;;;;;;11.50;6.97;;;;;;;5.58;67.67;97473.30;2303328;77;27694;-64
2020/12/28 11:11:53;;;;;;;18.50;10.50;;;;;;;5.65;67.54;97463.52;2303263;77;29599;-64
2020/12/28 11:14:55;;;;;;;17.62;11.10;;;;;;;5.73;67.59;97471.77;2302914;77;31126;-64
2020/12/28 11:17:58;;;;;;;13.62;8.88;;;;;;;5.79;67.51;97477.97;2303279;77;33159;-64
2020/12/28 11:21:01;;;;;;;16.52;10.28;;;;;;;5.82;67.02;97478.20;2303381;77;29155;-64
2020/12/28 11:24:03;;;;;;;14.47;8.53;;;;;;;5.84;66.97;97463.83;2303645;77;27712;-64
2020/12/28 11:27:06;;;;;;;11.50;7.70;;;;;;;5.81;66.22;97465.38;2303527;77;29797;-63
2020/12/28 11:30:09;;;;;;;13.32;9.25;;;;;;;5.76;66.02;97451.12;2303363;77;31138;-65
2020/12/28 11:33:12;;;;;;;18.25;8.80;;;;;;;5.72;66.04;97452.81;2303554;77;33135;-64
2020/12/28 11:36:16;;;;;;;18.23;8.78;;;;;;;5.65;66.04;97453.77;2303570;77;29223;-64
2020/12/28 11:39:19;;;;;;;16.37;8.85;;;;;;;5.63;66.02;97454.36;2303620;77;27712;-64
2020/12/28 11:42:23;;;;;;;15.75;8.55;;;;;;;5.63;66.23;97450.38;2303510;77;28863;-64
2020/12/28 11:45:25;;;;;;;12.53;8.67;;;;;;;5.60;65.86;97453.25;2299742;77;31207;-65
2020/12/28 11:48:28;;;;;;;24.50;10.58;;;;;;;5.56;65.68;97443.82;2303408;77;33177;-64
2020/12/28 11:51:31;;;;;;;14.85;9.68;;;;;;;5.50;65.69;97434.52;2303247;77;28492;-64
2020/12/28 11:54:33;;;;;;;15.50;9.58;;;;;;;5.44;65.72;97434.50;2302967;77;27741;-64
2020/12/28 11:57:36;;;;;;;19.90;9.03;;;;;;;5.39;65.63;97435.81;2302862;77;29843;-64
2020/12/28 12:00:38;;;;;;;17.10;9.48;;;;;;;5.31;65.77;97435.89;2302681;77;31139;-63
2020/12/28 12:03:41;;;;;;;13.22;8.45;;;;;;;5.26;65.62;97438.52;2302742;77;33103;-64
2020/12/28 12:06:44;;;;;;;13.75;8.23;;;;;;;5.20;65.79;97433.19;2302858;77;30084;-64
2020/12/28 12:09:47;;;;;;;14.68;7.87;;;;;;;5.13;65.37;97438.11;2302761;77;27597;-64
2020/12/28 12:12:50;;;;;;;14.40;9.00;;;;;;;5.05;65.22;97433.83;2302695;77;28805;-63
2020/12/28 12:15:52;;;;;;;14.10;8.33;;;;;;;4.99;65.38;97432.48;2302645;77;31107;-64
2020/12/28 12:18:55;;;;;;;12.75;8.60;;;;;;;4.94;65.28;97429.34;2302606;77;33174;-63
2020/12/28 12:21:57;;;;;;;23.07;9.18;;;;;;;4.90;65.29;97430.52;2302680;77;30598;-63
2020/12/28 12:25:00;;;;;;;13.55;8.38;;;;;;;4.90;65.39;97430.98;2302825;77;27634;-65
2020/12/28 12:28:03;;;;;;;15.35;8.65;;;;;;;4.86;65.25;97429.03;2302557;77;28807;-64
2020/12/28 12:31:05;;;;;;;19.40;10.35;;;;;;;4.84;65.13;97426.97;2302498;77;31892;-64
2020/12/28 12:34:08;;;;;;;16.57;10.68;;;;;;;4.80;65.13;97423.70;2302532;77;34122;-64
2020/12/28 12:37:12;;;;;;;15.10;9.60;;;;;;;4.78;65.11;97415.50;2302713;77;30377;-63
2020/12/28 12:40:15;;;;;;;13.68;8.40;;;;;;;4.75;65.03;97411.73;2302786;77;27698;-63
2020/12/28 12:43:17;;;;;;;17.52;9.70;;;;;;;4.73;64.96;97405.70;2302668;77;28747;-65
2020/12/28 12:46:20;;;;;;;17.65;9.73;;;;;;;4.72;64.98;97412.79;2302727;77;30327;-65
2020/12/28 12:49:23;;;;;;;22.02;12.20;;;;;;;4.73;64.93;97414.98;2302663;77;33127;-64
2020/12/28 12:52:27;;;;;;;26.42;14.23;;;;;;;4.74;65.13;97420.16;2302552;77;29140;-64
2020/12/28 12:55:29;;;;;;;20.68;13.72;;;;;;;4.76;65.16;97412.11;2306256;77;27576;-64
2020/12/28 12:58:31;;;;;;;32.67;20.95;;;;;;;4.78;65.13;97424.78;2306763;77;28830;-64
2020/12/28 13:01:34;;;;;;;25.95;13.10;;;;;;;4.78;65.25;97435.39;2306806;77;31996;-65
2020/12/28 13:04:36;;;;;;;17.65;11.50;;;;;;;4.79;65.26;97438.41;2306511;77;33086;-64
2020/12/28 13:07:41;;;;;;;32.17;19.98;;;;;;;4.80;65.24;97432.16;2306778;77;29157;-65
2020/12/28 13:10:44;;;;;;;52.75;35.28;;;;;;;4.78;65.30;97431.41;2306948;77;27692;-63
2020/12/28 13:13:48;;;;;;;18.52;11.43;;;;;;;4.77;65.23;97434.53;2306739;77;29720;-64
2020/12/28 13:16:52;;;;;;;22.85;15.58;;;;;;;4.73;65.16;97445.47;2306675;77;32002;-65
2020/12/28 13:19:54;;;;;;;22.30;13.43;;;;;;;4.68;65.33;97443.99;2306561;77;33184;-64
2020/12/28 13:22:56;;;;;;;25.57;19.57;;;;;;;4.67;65.26;97448.09;2306655;77;29270;-64
2020/12/28 13:25:59;;;;;;;19.45;12.90;;;;;;;4.65;65.39;97449.51;2306782;77;27668;-63
2020/12/28 13:29:02;;;;;;;25.10;14.40;;;;;;;4.63;65.25;97453.23;2280698;77;28813;-63
2020/12/28 13:32:04;;;;;;;24.12;15.03;;;;;;;4.59;65.21;97450.43;2306677;77;31370;-65
2020/12/28 13:35:07;;;;;;;23.15;15.65;;;;;;;4.56;65.25;97464.77;2306597;77;33950;-65
2020/12/28 13:38:10;;;;;;;25.23;16.00;;;;;;;4.55;65.43;97461.25;2306684;77;30022;-64
2020/12/28 13:41:18;;;;;;;25.77;15.13;;;;;;;4.54;65.30;97471.52;2306696;77;28137;-64
2020/12/28 13:44:20;;;;;;;40.73;25.12;;;;;;;4.53;65.32;97477.77;2306659;77;28977;-64
2020/12/28 13:47:23;;;;;;;31.25;18.60;;;;;;;4.48;65.23;97478.56;2306588;77;32503;-65
2020/12/28 13:50:26;;;;;;;26.87;14.28;;;;;;;4.45;65.35;97476.13;2306565;77;33086;-64
2020/12/28 13:53:29;;;;;;;27.32;15.23;;;;;;;4.44;65.40;97482.38;2306331;75;29157;-64
2020/12/28 13:56:32;;;;;;;26.90;15.50;;;;;;;4.44;65.32;97485.03;2303415;77;27740;-65
2020/12/28 13:59:38;;;;;;;22.10;14.55;;;;;;;4.48;65.42;97481.21;2303327;77;28887;-64
2020/12/28 14:02:39;;;;;;;27.30;16.80;;;;;;;4.51;65.44;97481.00;2303335;77;31146;-64
2020/12/28 14:05:45;;;;;;;29.85;18.67;;;;;;;4.54;65.44;97475.95;2303296;77;33129;-64
2020/12/28 14:08:53;;;;;;;23.38;15.18;;;;;;;4.55;65.32;97480.30;2303304;77;30553;-64
2020/12/28 14:11:56;;;;;;;24.57;13.62;;;;;;;4.59;65.30;97476.94;2303412;77;27636;-64
2020/12/28 14:14:58;;;;;;;23.80;15.08;;;;;;;4.58;65.01;97478.77;2303453;77;28825;-64
2020/12/28 14:18:02;;;;;;;23.35;15.48;;;;;;;4.57;65.15;97475.73;2303290;77;31083;-64
2020/12/28 14:21:05;;;;;;;24.50;16.48;;;;;;;4.58;64.93;97480.09;2303142;77;33019;-64
2020/12/28 14:24:08;;;;;;;27.02;18.57;;;;;;;4.59;64.87;97486.22;2303256;77;29200;-63
2020/12/28 14:27:10;;;;;;;26.15;17.27;;;;;;;4.57;64.77;97481.04;2303394;77;27704;-64